Upington, South Africa
Current Conditions -  °F | °C
As of 8:00 PM on Thursday 27 Nov 2014 (Local Time) from FAUP Reporting Station
Few Clouds Few Clouds  
Wind Chill: 72°   Ceiling: Unl
Heat Index: 72°   Visibility: 6mi
Dew Point: 32°   Wind: 5mph
Humidity: 23%   Direction: 220°SW
Pressure: 29.94"   Gusts: NA
Location:  28.46°S, 21.23°E
Report Text: FAUP 271800Z 22004KT 9999 FEW025 22/00 Q1014 NOSIG
Loading
Personal Weather Stations






























Interactive Weather Map New forecast layout! Learn more

10-Day Weather Forecast

Advertisements
Track Severe Weather on mobile